sensor_id;sensor_type;location;lat;lon;timestamp;temperature;humidity
27026;DHT22;14565;48.626;8.978;2022-10-17T00:00:46;14.30;99.90
27026;DHT22;14565;48.626;8.978;2022-10-17T00:03:12;14.20;99.90
27026;DHT22;14565;48.626;8.978;2022-10-17T00:05:42;14.20;99.90
27026;DHT22;14565;48.626;8.978;2022-10-17T00:08:10;14.20;99.90
27026;DHT22;14565;48.626;8.978;2022-10-17T00:10:36;14.20;99.90
27026;DHT22;14565;48.626;8.978;2022-10-17T00:13:02;14.20;99.90
27026;DHT22;14565;48.626;8.978;2022-10-17T00:15:28;14.20;99.90
27026;DHT22;14565;48.626;8.978;2022-10-17T00:17:53;14.20;99.90
27026;DHT22;14565;48.626;8.978;2022-10-17T00:20:19;14.10;99.90
27026;DHT22;14565;48.626;8.978;2022-10-17T00:22:45;14.10;99.90
27026;DHT22;14565;48.626;8.978;2022-10-17T00:25:11;14.00;99.90
27026;DHT22;14565;48.626;8.978;2022-10-17T00:27:38;14.00;99.90
27026;DHT22;14565;48.626;8.978;2022-10-17T00:30:06;14.00;99.90
27026;DHT22;14565;48.626;8.978;2022-10-17T00:32:32;13.90;99.90
27026;DHT22;14565;48.626;8.978;2022-10-17T00:34:57;13.90;99.90
27026;DHT22;14565;48.626;8.978;2022-10-17T00:37:23;13.80;99.90
27026;DHT22;14565;48.626;8.978;2022-10-17T00:39:49;13.80;99.90
27026;DHT22;14565;48.626;8.978;2022-10-17T00:42:15;13.70;99.90
27026;DHT22;14565;48.626;8.978;2022-10-17T00:47:11;13.60;99.90
27026;DHT22;14565;48.626;8.978;2022-10-17T00:49:38;13.60;99.90
27026;DHT22;14565;48.626;8.978;2022-10-17T00:52:09;13.70;99.90
27026;DHT22;14565;48.626;8.978;2022-10-17T00:54:43;13.70;99.90
27026;DHT22;14565;48.626;8.978;2022-10-17T00:57:10;13.70;99.90
27026;DHT22;14565;48.626;8.978;2022-10-17T00:59:37;13.70;99.90
27026;DHT22;14565;48.626;8.978;2022-10-17T01:02:10;13.70;99.90
27026;DHT22;14565;48.626;8.978;2022-10-17T01:04:38;13.70;99.90
27026;DHT22;14565;48.626;8.978;2022-10-17T01:07:04;13.60;99.90
27026;DHT22;14565;48.626;8.978;2022-10-17T01:09:30;13.50;99.90
27026;DHT22;14565;48.626;8.978;2022-10-17T01:22:45;12.60;99.90
27026;DHT22;14565;48.626;8.978;2022-10-17T01:31:18;12.60;99.90
27026;DHT22;14565;48.626;8.978;2022-10-17T01:47:16;12.40;99.90
27026;DHT22;14565;48.626;8.978;2022-10-17T01:49:44;12.60;99.90
27026;DHT22;14565;48.626;8.978;2022-10-17T01:52:32;12.50;99.90
27026;DHT22;14565;48.626;8.978;2022-10-17T01:55:07;12.20;99.90
27026;DHT22;14565;48.626;8.978;2022-10-17T01:57:45;12.00;99.90
27026;DHT22;14565;48.626;8.978;2022-10-17T02:00:21;12.00;99.90
27026;DHT22;14565;48.626;8.978;2022-10-17T02:02:50;11.90;99.90
27026;DHT22;14565;48.626;8.978;2022-10-17T02:05:21;11.90;99.90
27026;DHT22;14565;48.626;8.978;2022-10-17T02:07:48;12.00;99.90
27026;DHT22;14565;48.626;8.978;2022-10-17T02:10:38;11.90;99.90
27026;DHT22;14565;48.626;8.978;2022-10-17T02:15:42;11.80;99.90
27026;DHT22;14565;48.626;8.978;2022-10-17T02:18:21;11.80;99.90
27026;DHT22;14565;48.626;8.978;2022-10-17T02:21:06;11.70;99.90
27026;DHT22;14565;48.626;8.978;2022-10-17T02:23:42;11.60;99.90
27026;DHT22;14565;48.626;8.978;2022-10-17T02:26:40;11.60;99.90
27026;DHT22;14565;48.626;8.978;2022-10-17T02:29:12;11.70;99.90
27026;DHT22;14565;48.626;8.978;2022-10-17T02:36:58;11.70;99.90
27026;DHT22;14565;48.626;8.978;2022-10-17T02:39:26;11.60;99.90
27026;DHT22;14565;48.626;8.978;2022-10-17T02:41:55;11.60;99.90
27026;DHT22;14565;48.626;8.978;2022-10-17T02:44:22;11.50;99.90
27026;DHT22;14565;48.626;8.978;2022-10-17T02:46:58;11.50;99.90
27026;DHT22;14565;48.626;8.978;2022-10-17T02:49:33;11.50;99.90
27026;DHT22;14565;48.626;8.978;2022-10-17T02:57:17;11.30;99.90
27026;DHT22;14565;48.626;8.978;2022-10-17T02:59:44;11.40;99.90
27026;DHT22;14565;48.626;8.978;2022-10-17T03:02:11;11.40;99.90
27026;DHT22;14565;48.626;8.978;2022-10-17T03:04:37;11.30;99.90
27026;DHT22;14565;48.626;8.978;2022-10-17T03:07:02;11.20;99.90
27026;DHT22;14565;48.626;8.978;2022-10-17T03:09:28;11.20;99.90
27026;DHT22;14565;48.626;8.978;2022-10-17T03:11:54;11.20;99.90
27026;DHT22;14565;48.626;8.978;2022-10-17T03:14:20;11.20;99.90
27026;DHT22;14565;48.626;8.978;2022-10-17T03:16:45;11.20;99.90
27026;DHT22;14565;48.626;8.978;2022-10-17T03:19:11;11.20;99.90
27026;DHT22;14565;48.626;8.978;2022-10-17T03:21:37;11.20;99.90
27026;DHT22;14565;48.626;8.978;2022-10-17T03:24:03;11.20;99.90
27026;DHT22;14565;48.626;8.978;2022-10-17T03:26:29;11.20;99.90
27026;DHT22;14565;48.626;8.978;2022-10-17T03:28:55;11.10;99.90
27026;DHT22;14565;48.626;8.978;2022-10-17T03:31:21;11.00;99.90
27026;DHT22;14565;48.626;8.978;2022-10-17T03:33:46;11.00;99.90
27026;DHT22;14565;48.626;8.978;2022-10-17T03:36:16;11.00;99.90
27026;DHT22;14565;48.626;8.978;2022-10-17T03:38:42;11.00;99.90
27026;DHT22;14565;48.626;8.978;2022-10-17T03:41:08;10.90;99.90
27026;DHT22;14565;48.626;8.978;2022-10-17T03:43:33;10.80;99.90
27026;DHT22;14565;48.626;8.978;2022-10-17T03:45:59;10.80;99.90
27026;DHT22;14565;48.626;8.978;2022-10-17T03:48:27;10.80;99.90
27026;DHT22;14565;48.626;8.978;2022-10-17T03:51:02;10.90;99.90
27026;DHT22;14565;48.626;8.978;2022-10-17T03:53:28;10.80;99.90
27026;DHT22;14565;48.626;8.978;2022-10-17T03:55:54;10.80;99.90
27026;DHT22;14565;48.626;8.978;2022-10-17T03:58:19;10.90;99.90
27026;DHT22;14565;48.626;8.978;2022-10-17T04:00:45;11.00;99.90
27026;DHT22;14565;48.626;8.978;2022-10-17T04:03:11;11.00;99.90
27026;DHT22;14565;48.626;8.978;2022-10-17T04:05:36;11.10;99.90
27026;DHT22;14565;48.626;8.978;2022-10-17T04:08:02;11.20;99.90
27026;DHT22;14565;48.626;8.978;2022-10-17T04:10:28;11.40;99.90
27026;DHT22;14565;48.626;8.978;2022-10-17T04:12:54;11.40;99.90
27026;DHT22;14565;48.626;8.978;2022-10-17T04:15:19;11.50;99.90
27026;DHT22;14565;48.626;8.978;2022-10-17T04:17:45;11.70;99.90
27026;DHT22;14565;48.626;8.978;2022-10-17T04:20:11;11.60;99.90
27026;DHT22;14565;48.626;8.978;2022-10-17T04:22:37;11.60;99.90
27026;DHT22;14565;48.626;8.978;2022-10-17T04:25:02;11.60;99.90
27026;DHT22;14565;48.626;8.978;2022-10-17T04:27:28;11.60;99.90
27026;DHT22;14565;48.626;8.978;2022-10-17T04:29:54;11.50;99.90
27026;DHT22;14565;48.626;8.978;2022-10-17T04:32:20;11.50;99.90
27026;DHT22;14565;48.626;8.978;2022-10-17T04:34:49;11.30;99.90
27026;DHT22;14565;48.626;8.978;2022-10-17T04:37:14;11.20;99.90
27026;DHT22;14565;48.626;8.978;2022-10-17T04:39:40;11.10;99.90
27026;DHT22;14565;48.626;8.978;2022-10-17T04:42:06;10.90;99.90
27026;DHT22;14565;48.626;8.978;2022-10-17T04:44:32;11.00;99.90
27026;DHT22;14565;48.626;8.978;2022-10-17T04:46:59;11.00;99.90
27026;DHT22;14565;48.626;8.978;2022-10-17T04:49:25;11.20;99.90
27026;DHT22;14565;48.626;8.978;2022-10-17T04:51:51;11.30;99.90
27026;DHT22;14565;48.626;8.978;2022-10-17T04:54:16;11.40;99.90
27026;DHT22;14565;48.626;8.978;2022-10-17T04:56:42;11.40;99.90
27026;DHT22;14565;48.626;8.978;2022-10-17T04:59:07;11.50;99.90
27026;DHT22;14565;48.626;8.978;2022-10-17T05:01:33;11.70;99.90
27026;DHT22;14565;48.626;8.978;2022-10-17T05:03:59;11.90;99.90
27026;DHT22;14565;48.626;8.978;2022-10-17T05:06:25;12.00;99.90
27026;DHT22;14565;48.626;8.978;2022-10-17T05:08:52;12.00;99.90
27026;DHT22;14565;48.626;8.978;2022-10-17T05:11:28;12.10;99.90
27026;DHT22;14565;48.626;8.978;2022-10-17T05:13:55;12.10;99.90
27026;DHT22;14565;48.626;8.978;2022-10-17T05:16:22;12.20;99.90
27026;DHT22;14565;48.626;8.978;2022-10-17T05:18:54;12.20;99.90
27026;DHT22;14565;48.626;8.978;2022-10-17T05:21:22;12.20;99.90
27026;DHT22;14565;48.626;8.978;2022-10-17T05:23:48;12.30;99.90
27026;DHT22;14565;48.626;8.978;2022-10-17T05:26:14;12.30;99.90
27026;DHT22;14565;48.626;8.978;2022-10-17T05:28:40;12.20;99.90
27026;DHT22;14565;48.626;8.978;2022-10-17T05:31:07;11.20;99.90
27026;DHT22;14565;48.626;8.978;2022-10-17T05:33:33;11.00;99.90
27026;DHT22;14565;48.626;8.978;2022-10-17T05:35:59;11.10;99.90
27026;DHT22;14565;48.626;8.978;2022-10-17T05:38:26;11.10;99.90
27026;DHT22;14565;48.626;8.978;2022-10-17T05:40:55;11.00;99.90
27026;DHT22;14565;48.626;8.978;2022-10-17T05:43:21;11.10;99.90
27026;DHT22;14565;48.626;8.978;2022-10-17T05:45:46;11.10;99.90
27026;DHT22;14565;48.626;8.978;2022-10-17T05:48:12;11.10;99.90
27026;DHT22;14565;48.626;8.978;2022-10-17T05:50:38;11.20;99.90
27026;DHT22;14565;48.626;8.978;2022-10-17T05:53:03;11.20;99.90
27026;DHT22;14565;48.626;8.978;2022-10-17T05:55:29;11.10;99.90
27026;DHT22;14565;48.626;8.978;2022-10-17T05:57:55;11.20;99.90
27026;DHT22;14565;48.626;8.978;2022-10-17T06:00:21;11.10;99.90
27026;DHT22;14565;48.626;8.978;2022-10-17T06:02:47;11.00;99.90
27026;DHT22;14565;48.626;8.978;2022-10-17T06:05:13;11.00;99.90
27026;DHT22;14565;48.626;8.978;2022-10-17T06:07:39;11.00;99.90
27026;DHT22;14565;48.626;8.978;2022-10-17T06:10:05;11.10;99.90
27026;DHT22;14565;48.626;8.978;2022-10-17T06:12:31;11.10;99.90
27026;DHT22;14565;48.626;8.978;2022-10-17T06:14:57;11.00;99.90
27026;DHT22;14565;48.626;8.978;2022-10-17T06:17:23;11.00;99.90
27026;DHT22;14565;48.626;8.978;2022-10-17T06:19:49;11.10;99.90
27026;DHT22;14565;48.626;8.978;2022-10-17T06:22:15;11.10;99.90
27026;DHT22;14565;48.626;8.978;2022-10-17T06:24:40;11.20;99.90
27026;DHT22;14565;48.626;8.978;2022-10-17T06:27:07;11.20;99.90
27026;DHT22;14565;48.626;8.978;2022-10-17T06:29:33;11.40;99.90
27026;DHT22;14565;48.626;8.978;2022-10-17T06:31:58;11.50;99.90
27026;DHT22;14565;48.626;8.978;2022-10-17T06:34:24;11.40;99.90
27026;DHT22;14565;48.626;8.978;2022-10-17T06:36:50;11.60;99.90
27026;DHT22;14565;48.626;8.978;2022-10-17T06:39:15;11.80;99.90
27026;DHT22;14565;48.626;8.978;2022-10-17T06:41:41;11.80;99.90
27026;DHT22;14565;48.626;8.978;2022-10-17T06:44:09;11.70;99.90
27026;DHT22;14565;48.626;8.978;2022-10-17T06:46:38;11.60;99.90
27026;DHT22;14565;48.626;8.978;2022-10-17T06:49:04;11.50;99.90
27026;DHT22;14565;48.626;8.978;2022-10-17T06:51:33;11.70;99.90
27026;DHT22;14565;48.626;8.978;2022-10-17T06:53:58;11.80;99.90
27026;DHT22;14565;48.626;8.978;2022-10-17T06:56:24;12.00;99.90
27026;DHT22;14565;48.626;8.978;2022-10-17T06:58:50;12.20;99.90
27026;DHT22;14565;48.626;8.978;2022-10-17T07:01:17;12.40;99.90
27026;DHT22;14565;48.626;8.978;2022-10-17T07:03:46;12.60;99.90
27026;DHT22;14565;48.626;8.978;2022-10-17T07:06:11;12.80;99.90
27026;DHT22;14565;48.626;8.978;2022-10-17T07:08:40;13.10;99.90
27026;DHT22;14565;48.626;8.978;2022-10-17T07:11:14;13.20;99.90
27026;DHT22;14565;48.626;8.978;2022-10-17T07:13:41;13.30;99.90
27026;DHT22;14565;48.626;8.978;2022-10-17T07:16:07;13.50;99.90
27026;DHT22;14565;48.626;8.978;2022-10-17T07:18:33;13.60;99.90
27026;DHT22;14565;48.626;8.978;2022-10-17T07:20:59;13.80;99.90
27026;DHT22;14565;48.626;8.978;2022-10-17T07:23:25;14.00;99.90
27026;DHT22;14565;48.626;8.978;2022-10-17T07:25:51;14.20;99.90
27026;DHT22;14565;48.626;8.978;2022-10-17T07:28:17;14.40;99.90
27026;DHT22;14565;48.626;8.978;2022-10-17T07:30:42;14.60;99.90
27026;DHT22;14565;48.626;8.978;2022-10-17T07:33:09;14.90;99.90
27026;DHT22;14565;48.626;8.978;2022-10-17T07:35:37;15.10;99.90
27026;DHT22;14565;48.626;8.978;2022-10-17T07:38:05;15.30;99.90
27026;DHT22;14565;48.626;8.978;2022-10-17T07:40:30;15.40;99.90
27026;DHT22;14565;48.626;8.978;2022-10-17T07:42:56;15.50;99.90
27026;DHT22;14565;48.626;8.978;2022-10-17T07:45:22;15.70;99.90
27026;DHT22;14565;48.626;8.978;2022-10-17T07:47:48;15.90;99.90
27026;DHT22;14565;48.626;8.978;2022-10-17T07:50:14;16.20;99.90
27026;DHT22;14565;48.626;8.978;2022-10-17T07:52:39;16.30;99.90
27026;DHT22;14565;48.626;8.978;2022-10-17T07:55:08;16.40;99.90
27026;DHT22;14565;48.626;8.978;2022-10-17T07:57:33;16.60;99.90
27026;DHT22;14565;48.626;8.978;2022-10-17T07:59:59;16.60;99.90
27026;DHT22;14565;48.626;8.978;2022-10-17T08:02:26;16.70;99.90
27026;DHT22;14565;48.626;8.978;2022-10-17T08:04:52;16.70;99.90
27026;DHT22;14565;48.626;8.978;2022-10-17T08:07:19;16.90;99.90
27026;DHT22;14565;48.626;8.978;2022-10-17T08:09:45;17.00;99.90
27026;DHT22;14565;48.626;8.978;2022-10-17T08:12:12;17.30;99.90
27026;DHT22;14565;48.626;8.978;2022-10-17T08:14:40;17.40;99.90
27026;DHT22;14565;48.626;8.978;2022-10-17T08:17:05;17.60;99.90
27026;DHT22;14565;48.626;8.978;2022-10-17T08:19:31;17.70;99.90
27026;DHT22;14565;48.626;8.978;2022-10-17T08:21:57;17.80;99.90
27026;DHT22;14565;48.626;8.978;2022-10-17T08:24:24;17.60;99.90
27026;DHT22;14565;48.626;8.978;2022-10-17T08:26:49;17.70;99.90
27026;DHT22;14565;48.626;8.978;2022-10-17T08:29:18;17.70;99.90
27026;DHT22;14565;48.626;8.978;2022-10-17T08:31:43;17.80;99.90
27026;DHT22;14565;48.626;8.978;2022-10-17T08:34:09;17.80;99.90
27026;DHT22;14565;48.626;8.978;2022-10-17T08:36:35;17.70;99.90
27026;DHT22;14565;48.626;8.978;2022-10-17T08:39:00;17.90;99.90
27026;DHT22;14565;48.626;8.978;2022-10-17T08:41:51;18.10;99.90
27026;DHT22;14565;48.626;8.978;2022-10-17T08:46:53;18.40;99.90
27026;DHT22;14565;48.626;8.978;2022-10-17T08:49:37;18.60;99.90
27026;DHT22;14565;48.626;8.978;2022-10-17T08:52:13;18.70;99.90
27026;DHT22;14565;48.626;8.978;2022-10-17T08:54:42;19.00;99.90
27026;DHT22;14565;48.626;8.978;2022-10-17T08:57:15;19.20;99.90
27026;DHT22;14565;48.626;8.978;2022-10-17T08:59:42;19.10;99.90
27026;DHT22;14565;48.626;8.978;2022-10-17T09:07:54;19.30;99.90
27026;DHT22;14565;48.626;8.978;2022-10-17T09:10:42;19.30;99.90
27026;DHT22;14565;48.626;8.978;2022-10-17T09:19:30;19.70;99.90
27026;DHT22;14565;48.626;8.978;2022-10-17T09:22:09;19.80;99.90
27026;DHT22;14565;48.626;8.978;2022-10-17T09:24:47;19.80;99.90
27026;DHT22;14565;48.626;8.978;2022-10-17T09:27:19;19.80;99.90
27026;DHT22;14565;48.626;8.978;2022-10-17T09:29:48;19.80;99.90
27026;DHT22;14565;48.626;8.978;2022-10-17T09:32:18;19.80;99.90
27026;DHT22;14565;48.626;8.978;2022-10-17T09:34:45;19.90;99.90
27026;DHT22;14565;48.626;8.978;2022-10-17T09:37:16;19.90;99.90
27026;DHT22;14565;48.626;8.978;2022-10-17T09:39:43;19.90;99.90
27026;DHT22;14565;48.626;8.978;2022-10-17T09:42:12;19.90;99.90
27026;DHT22;14565;48.626;8.978;2022-10-17T09:44:54;20.00;99.90
27026;DHT22;14565;48.626;8.978;2022-10-17T09:49:57;20.10;99.90
27026;DHT22;14565;48.626;8.978;2022-10-17T09:52:33;20.10;99.90
27026;DHT22;14565;48.626;8.978;2022-10-17T09:58:00;20.10;99.90
27026;DHT22;14565;48.626;8.978;2022-10-17T10:00:29;20.10;99.90
27026;DHT22;14565;48.626;8.978;2022-10-17T10:03:24;20.10;99.90
27026;DHT22;14565;48.626;8.978;2022-10-17T10:06:03;19.90;99.90
27026;DHT22;14565;48.626;8.978;2022-10-17T10:08:34;19.90;99.90
27026;DHT22;14565;48.626;8.978;2022-10-17T10:11:06;19.90;99.90
27026;DHT22;14565;48.626;8.978;2022-10-17T10:13:33;20.00;99.90
27026;DHT22;14565;48.626;8.978;2022-10-17T10:16:21;20.10;99.90
27026;DHT22;14565;48.626;8.978;2022-10-17T10:18:49;20.10;99.90
27026;DHT22;14565;48.626;8.978;2022-10-17T10:21:23;20.30;99.90
27026;DHT22;14565;48.626;8.978;2022-10-17T10:26:43;20.20;99.90
27026;DHT22;14565;48.626;8.978;2022-10-17T10:29:29;20.10;99.90
27026;DHT22;14565;48.626;8.978;2022-10-17T10:32:22;20.20;99.90
27026;DHT22;14565;48.626;8.978;2022-10-17T10:34:59;20.40;99.90
27026;DHT22;14565;48.626;8.978;2022-10-17T10:37:40;20.40;99.90
27026;DHT22;14565;48.626;8.978;2022-10-17T10:40:24;20.60;99.90
27026;DHT22;14565;48.626;8.978;2022-10-17T10:42:56;20.70;99.90
27026;DHT22;14565;48.626;8.978;2022-10-17T10:45:40;20.80;99.90
27026;DHT22;14565;48.626;8.978;2022-10-17T10:48:19;20.90;99.90
27026;DHT22;14565;48.626;8.978;2022-10-17T10:50:58;20.80;99.90
27026;DHT22;14565;48.626;8.978;2022-10-17T10:58:54;20.80;99.90
27026;DHT22;14565;48.626;8.978;2022-10-17T11:06:45;21.20;99.90
27026;DHT22;14565;48.626;8.978;2022-10-17T11:09:14;21.30;99.90
27026;DHT22;14565;48.626;8.978;2022-10-17T11:11:57;21.40;99.90
27026;DHT22;14565;48.626;8.978;2022-10-17T11:14:39;21.60;99.90
27026;DHT22;14565;48.626;8.978;2022-10-17T11:20:19;21.80;99.90
27026;DHT22;14565;48.626;8.978;2022-10-17T11:22:47;21.90;99.90
27026;DHT22;14565;48.626;8.978;2022-10-17T11:25:33;21.90;99.90
27026;DHT22;14565;48.626;8.978;2022-10-17T11:28:00;22.00;99.90
27026;DHT22;14565;48.626;8.978;2022-10-17T11:30:38;21.90;99.90
27026;DHT22;14565;48.626;8.978;2022-10-17T11:33:05;22.20;99.90
27026;DHT22;14565;48.626;8.978;2022-10-17T11:35:39;22.00;99.90
27026;DHT22;14565;48.626;8.978;2022-10-17T11:40:57;22.20;99.90
27026;DHT22;14565;48.626;8.978;2022-10-17T11:46:04;22.20;99.90
27026;DHT22;14565;48.626;8.978;2022-10-17T11:48:38;22.30;99.90
27026;DHT22;14565;48.626;8.978;2022-10-17T11:51:08;22.40;99.90
27026;DHT22;14565;48.626;8.978;2022-10-17T11:53:49;22.40;99.90
27026;DHT22;14565;48.626;8.978;2022-10-17T12:01:43;22.10;99.90
27026;DHT22;14565;48.626;8.978;2022-10-17T12:04:25;22.10;99.90
27026;DHT22;14565;48.626;8.978;2022-10-17T12:09:53;22.20;99.90
27026;DHT22;14565;48.626;8.978;2022-10-17T12:12:27;22.30;99.90
27026;DHT22;14565;48.626;8.978;2022-10-17T12:14:53;22.10;99.90
27026;DHT22;14565;48.626;8.978;2022-10-17T12:17:44;22.00;99.90
27026;DHT22;14565;48.626;8.978;2022-10-17T12:25:26;22.50;99.90
27026;DHT22;14565;48.626;8.978;2022-10-17T12:33:57;22.50;99.90
27026;DHT22;14565;48.626;8.978;2022-10-17T12:49:42;22.30;99.90
27026;DHT22;14565;48.626;8.978;2022-10-17T13:02:40;22.70;99.90
27026;DHT22;14565;48.626;8.978;2022-10-17T13:05:13;22.70;99.90
27026;DHT22;14565;48.626;8.978;2022-10-17T13:07:42;22.70;99.90
27026;DHT22;14565;48.626;8.978;2022-10-17T13:10:25;22.60;99.90
27026;DHT22;14565;48.626;8.978;2022-10-17T13:12:59;22.70;99.90
27026;DHT22;14565;48.626;8.978;2022-10-17T13:15:27;22.60;99.90
27026;DHT22;14565;48.626;8.978;2022-10-17T13:18:00;22.80;99.90
27026;DHT22;14565;48.626;8.978;2022-10-17T13:20:27;22.80;99.90
27026;DHT22;14565;48.626;8.978;2022-10-17T13:22:55;22.90;99.90
27026;DHT22;14565;48.626;8.978;2022-10-17T13:25:23;22.90;99.90
27026;DHT22;14565;48.626;8.978;2022-10-17T13:27:50;22.70;99.90
27026;DHT22;14565;48.626;8.978;2022-10-17T13:30:22;22.90;99.90
27026;DHT22;14565;48.626;8.978;2022-10-17T13:32:48;22.80;99.90
27026;DHT22;14565;48.626;8.978;2022-10-17T13:35:20;22.80;99.90
27026;DHT22;14565;48.626;8.978;2022-10-17T13:37:46;22.80;99.90
27026;DHT22;14565;48.626;8.978;2022-10-17T13:40:18;22.80;99.90
27026;DHT22;14565;48.626;8.978;2022-10-17T13:42:45;22.80;99.90
27026;DHT22;14565;48.626;8.978;2022-10-17T13:45:28;22.80;99.90
27026;DHT22;14565;48.626;8.978;2022-10-17T13:47:54;22.70;99.90
27026;DHT22;14565;48.626;8.978;2022-10-17T13:53:18;22.80;99.90
27026;DHT22;14565;48.626;8.978;2022-10-17T13:58:28;22.90;99.90
27026;DHT22;14565;48.626;8.978;2022-10-17T14:00:54;22.90;99.90
27026;DHT22;14565;48.626;8.978;2022-10-17T14:03:21;22.90;99.90
27026;DHT22;14565;48.626;8.978;2022-10-17T14:06:42;22.90;99.90
27026;DHT22;14565;48.626;8.978;2022-10-17T14:09:03;23.00;99.90
27026;DHT22;14565;48.626;8.978;2022-10-17T14:11:34;22.90;99.90
27026;DHT22;14565;48.626;8.978;2022-10-17T14:14:03;22.80;99.90
27026;DHT22;14565;48.626;8.978;2022-10-17T14:16:37;22.80;99.90
27026;DHT22;14565;48.626;8.978;2022-10-17T14:19:05;22.80;99.90
27026;DHT22;14565;48.626;8.978;2022-10-17T14:21:39;22.90;99.90
27026;DHT22;14565;48.626;8.978;2022-10-17T14:26:58;22.80;99.90
27026;DHT22;14565;48.626;8.978;2022-10-17T14:29:31;22.90;99.90
27026;DHT22;14565;48.626;8.978;2022-10-17T14:32:05;22.70;99.90
27026;DHT22;14565;48.626;8.978;2022-10-17T14:34:37;22.60;99.90
27026;DHT22;14565;48.626;8.978;2022-10-17T14:37:57;22.60;99.90
27026;DHT22;14565;48.626;8.978;2022-10-17T14:40:02;22.50;99.90
27026;DHT22;14565;48.626;8.978;2022-10-17T14:42:28;22.50;99.90
27026;DHT22;14565;48.626;8.978;2022-10-17T14:44:58;22.40;99.90
27026;DHT22;14565;48.626;8.978;2022-10-17T14:47:28;22.50;99.90
27026;DHT22;14565;48.626;8.978;2022-10-17T14:50:19;22.40;99.90
27026;DHT22;14565;48.626;8.978;2022-10-17T14:55:52;22.20;99.90
27026;DHT22;14565;48.626;8.978;2022-10-17T14:58:23;22.30;99.90
27026;DHT22;14565;48.626;8.978;2022-10-17T15:00:49;22.10;99.90
27026;DHT22;14565;48.626;8.978;2022-10-17T15:03:15;22.20;99.90
27026;DHT22;14565;48.626;8.978;2022-10-17T15:05:44;22.30;99.90
27026;DHT22;14565;48.626;8.978;2022-10-17T15:08:16;22.20;99.90
27026;DHT22;14565;48.626;8.978;2022-10-17T15:10:43;22.10;99.90
27026;DHT22;14565;48.626;8.978;2022-10-17T15:13:10;22.10;99.90
27026;DHT22;14565;48.626;8.978;2022-10-17T15:15:37;21.90;99.90
27026;DHT22;14565;48.626;8.978;2022-10-17T15:18:04;21.80;99.90
27026;DHT22;14565;48.626;8.978;2022-10-17T15:20:31;21.80;99.90
27026;DHT22;14565;48.626;8.978;2022-10-17T15:22:58;21.70;99.90
27026;DHT22;14565;48.626;8.978;2022-10-17T15:25:26;21.70;99.90
27026;DHT22;14565;48.626;8.978;2022-10-17T15:27:52;21.70;99.90
27026;DHT22;14565;48.626;8.978;2022-10-17T15:30:20;21.60;99.90
27026;DHT22;14565;48.626;8.978;2022-10-17T15:32:46;21.60;99.90
27026;DHT22;14565;48.626;8.978;2022-10-17T15:35:12;21.50;99.90
27026;DHT22;14565;48.626;8.978;2022-10-17T15:37:38;21.30;99.90
27026;DHT22;14565;48.626;8.978;2022-10-17T15:40:04;21.20;99.90
27026;DHT22;14565;48.626;8.978;2022-10-17T15:42:30;21.10;99.90
27026;DHT22;14565;48.626;8.978;2022-10-17T15:44:57;21.00;99.90
27026;DHT22;14565;48.626;8.978;2022-10-17T15:47:27;20.90;99.90
27026;DHT22;14565;48.626;8.978;2022-10-17T15:49:55;20.80;99.90
27026;DHT22;14565;48.626;8.978;2022-10-17T15:52:21;20.70;99.90
27026;DHT22;14565;48.626;8.978;2022-10-17T15:54:47;20.50;99.90
27026;DHT22;14565;48.626;8.978;2022-10-17T15:57:18;20.40;99.90
27026;DHT22;14565;48.626;8.978;2022-10-17T15:59:45;20.30;99.90
27026;DHT22;14565;48.626;8.978;2022-10-17T16:02:15;20.10;99.90
27026;DHT22;14565;48.626;8.978;2022-10-17T16:04:41;20.00;99.90
27026;DHT22;14565;48.626;8.978;2022-10-17T16:07:07;19.80;99.90
27026;DHT22;14565;48.626;8.978;2022-10-17T16:09:34;19.60;99.90
27026;DHT22;14565;48.626;8.978;2022-10-17T16:12:05;19.50;99.90
27026;DHT22;14565;48.626;8.978;2022-10-17T16:14:31;19.30;99.90
27026;DHT22;14565;48.626;8.978;2022-10-17T16:16:57;19.20;99.90
27026;DHT22;14565;48.626;8.978;2022-10-17T16:19:24;19.10;99.90
27026;DHT22;14565;48.626;8.978;2022-10-17T16:21:54;18.90;99.90
27026;DHT22;14565;48.626;8.978;2022-10-17T16:24:20;18.80;99.90
27026;DHT22;14565;48.626;8.978;2022-10-17T16:26:46;18.60;99.90
27026;DHT22;14565;48.626;8.978;2022-10-17T16:29:12;18.50;99.90
27026;DHT22;14565;48.626;8.978;2022-10-17T16:31:41;18.30;99.90
27026;DHT22;14565;48.626;8.978;2022-10-17T16:34:07;18.20;99.90
27026;DHT22;14565;48.626;8.978;2022-10-17T16:36:33;18.00;99.90
27026;DHT22;14565;48.626;8.978;2022-10-17T16:38:59;17.90;99.90
27026;DHT22;14565;48.626;8.978;2022-10-17T16:41:36;17.80;99.90
27026;DHT22;14565;48.626;8.978;2022-10-17T16:44:04;17.70;99.90
27026;DHT22;14565;48.626;8.978;2022-10-17T16:46:31;17.60;99.90
27026;DHT22;14565;48.626;8.978;2022-10-17T16:48:58;17.50;99.90
27026;DHT22;14565;48.626;8.978;2022-10-17T16:51:24;17.40;99.90
27026;DHT22;14565;48.626;8.978;2022-10-17T16:53:51;17.30;99.90
27026;DHT22;14565;48.626;8.978;2022-10-17T16:56:20;17.20;99.90
27026;DHT22;14565;48.626;8.978;2022-10-17T16:58:47;17.10;99.90
27026;DHT22;14565;48.626;8.978;2022-10-17T17:01:19;17.00;99.90
27026;DHT22;14565;48.626;8.978;2022-10-17T17:03:46;16.90;99.90
27026;DHT22;14565;48.626;8.978;2022-10-17T17:06:14;16.80;99.90
27026;DHT22;14565;48.626;8.978;2022-10-17T17:08:41;16.80;99.90
27026;DHT22;14565;48.626;8.978;2022-10-17T17:11:08;16.70;99.90
27026;DHT22;14565;48.626;8.978;2022-10-17T17:13:34;16.70;99.90
27026;DHT22;14565;48.626;8.978;2022-10-17T17:16:06;16.50;99.90
27026;DHT22;14565;48.626;8.978;2022-10-17T17:18:32;16.50;99.90
27026;DHT22;14565;48.626;8.978;2022-10-17T17:20:59;16.40;99.90
27026;DHT22;14565;48.626;8.978;2022-10-17T17:23:26;16.30;99.90
27026;DHT22;14565;48.626;8.978;2022-10-17T17:25:59;16.30;99.90
27026;DHT22;14565;48.626;8.978;2022-10-17T17:28:26;16.20;99.90
27026;DHT22;14565;48.626;8.978;2022-10-17T17:30:53;16.30;99.90
27026;DHT22;14565;48.626;8.978;2022-10-17T17:33:19;15.70;99.90
27026;DHT22;14565;48.626;8.978;2022-10-17T17:35:45;15.50;99.90
27026;DHT22;14565;48.626;8.978;2022-10-17T17:38:10;15.60;99.90
27026;DHT22;14565;48.626;8.978;2022-10-17T17:40:42;15.60;99.90
27026;DHT22;14565;48.626;8.978;2022-10-17T17:43:07;15.60;99.90
27026;DHT22;14565;48.626;8.978;2022-10-17T17:45:33;15.50;99.90
27026;DHT22;14565;48.626;8.978;2022-10-17T17:47:59;15.50;99.90
27026;DHT22;14565;48.626;8.978;2022-10-17T17:50:25;15.40;99.90
27026;DHT22;14565;48.626;8.978;2022-10-17T17:52:50;15.40;99.90
27026;DHT22;14565;48.626;8.978;2022-10-17T17:55:16;15.40;99.90
27026;DHT22;14565;48.626;8.978;2022-10-17T17:57:42;15.40;99.90
27026;DHT22;14565;48.626;8.978;2022-10-17T18:00:08;15.40;99.90
27026;DHT22;14565;48.626;8.978;2022-10-17T18:02:33;15.40;99.90
27026;DHT22;14565;48.626;8.978;2022-10-17T18:05:00;15.40;99.90